sensor_id;sensor_type;location;lat;lon;timestamp;P1;durP1;ratioP1;P2;durP2;ratioP2
68097;SDS011;54886;47.036;15.466;2022-07-22T00:02:09;4.97;;;3.47;;
68097;SDS011;54886;47.036;15.466;2022-07-22T00:04:35;6.65;;;2.97;;
68097;SDS011;54886;47.036;15.466;2022-07-22T00:07:00;6.32;;;3.25;;
68097;SDS011;54886;47.036;15.466;2022-07-22T00:09:26;6.25;;;3.38;;
68097;SDS011;54886;47.036;15.466;2022-07-22T00:11:51;5.90;;;3.20;;
68097;SDS011;54886;47.036;15.466;2022-07-22T00:14:17;4.93;;;3.20;;
68097;SDS011;54886;47.036;15.466;2022-07-22T00:16:42;6.35;;;3.13;;
68097;SDS011;54886;47.036;15.466;2022-07-22T00:19:08;4.53;;;3.03;;
68097;SDS011;54886;47.036;15.466;2022-07-22T00:21:34;5.03;;;2.83;;
68097;SDS011;54886;47.036;15.466;2022-07-22T00:23:59;6.53;;;3.15;;
68097;SDS011;54886;47.036;15.466;2022-07-22T00:26:25;4.68;;;3.03;;
68097;SDS011;54886;47.036;15.466;2022-07-22T00:28:50;6.60;;;3.40;;
68097;SDS011;54886;47.036;15.466;2022-07-22T00:31:16;6.55;;;3.20;;
68097;SDS011;54886;47.036;15.466;2022-07-22T00:33:41;5.07;;;2.92;;
68097;SDS011;54886;47.036;15.466;2022-07-22T00:36:07;7.45;;;3.20;;
68097;SDS011;54886;47.036;15.466;2022-07-22T00:38:33;4.93;;;3.08;;
68097;SDS011;54886;47.036;15.466;2022-07-22T00:40:58;4.47;;;3.05;;
68097;SDS011;54886;47.036;15.466;2022-07-22T00:43:23;4.55;;;2.90;;
68097;SDS011;54886;47.036;15.466;2022-07-22T00:45:49;6.05;;;3.30;;
68097;SDS011;54886;47.036;15.466;2022-07-22T00:48:15;6.28;;;3.20;;
68097;SDS011;54886;47.036;15.466;2022-07-22T00:50:40;4.25;;;3.17;;
68097;SDS011;54886;47.036;15.466;2022-07-22T00:53:06;8.30;;;3.50;;
68097;SDS011;54886;47.036;15.466;2022-07-22T00:55:32;7.03;;;3.20;;
68097;SDS011;54886;47.036;15.466;2022-07-22T00:57:59;7.28;;;3.17;;
68097;SDS011;54886;47.036;15.466;2022-07-22T01:00:24;5.63;;;3.35;;
68097;SDS011;54886;47.036;15.466;2022-07-22T01:02:49;7.93;;;3.40;;
68097;SDS011;54886;47.036;15.466;2022-07-22T01:05:16;6.60;;;3.40;;
68097;SDS011;54886;47.036;15.466;2022-07-22T01:07:42;4.78;;;3.22;;
68097;SDS011;54886;47.036;15.466;2022-07-22T01:10:08;4.53;;;3.00;;
68097;SDS011;54886;47.036;15.466;2022-07-22T01:12:34;5.38;;;3.00;;
68097;SDS011;54886;47.036;15.466;2022-07-22T01:15:00;5.03;;;3.05;;
68097;SDS011;54886;47.036;15.466;2022-07-22T01:17:25;5.78;;;3.00;;
68097;SDS011;54886;47.036;15.466;2022-07-22T01:19:51;6.50;;;3.10;;
68097;SDS011;54886;47.036;15.466;2022-07-22T01:22:17;4.50;;;3.08;;
68097;SDS011;54886;47.036;15.466;2022-07-22T01:24:42;5.03;;;3.25;;
68097;SDS011;54886;47.036;15.466;2022-07-22T01:27:08;5.07;;;3.17;;
68097;SDS011;54886;47.036;15.466;2022-07-22T01:29:33;8.05;;;3.40;;
68097;SDS011;54886;47.036;15.466;2022-07-22T01:31:59;5.20;;;3.30;;
68097;SDS011;54886;47.036;15.466;2022-07-22T01:34:24;5.78;;;3.17;;
68097;SDS011;54886;47.036;15.466;2022-07-22T01:36:49;4.68;;;3.20;;
68097;SDS011;54886;47.036;15.466;2022-07-22T01:39:15;7.30;;;3.63;;
68097;SDS011;54886;47.036;15.466;2022-07-22T01:41:41;4.38;;;3.10;;
68097;SDS011;54886;47.036;15.466;2022-07-22T01:44:07;8.52;;;3.50;;
68097;SDS011;54886;47.036;15.466;2022-07-22T01:46:32;7.43;;;3.28;;
68097;SDS011;54886;47.036;15.466;2022-07-22T01:48:58;7.03;;;3.42;;
68097;SDS011;54886;47.036;15.466;2022-07-22T01:51:23;7.82;;;3.03;;
68097;SDS011;54886;47.036;15.466;2022-07-22T01:53:49;7.82;;;3.80;;
68097;SDS011;54886;47.036;15.466;2022-07-22T01:56:14;5.72;;;3.30;;
68097;SDS011;54886;47.036;15.466;2022-07-22T01:58:40;5.63;;;3.45;;
68097;SDS011;54886;47.036;15.466;2022-07-22T02:01:06;5.15;;;3.35;;
68097;SDS011;54886;47.036;15.466;2022-07-22T02:03:31;4.13;;;3.20;;
68097;SDS011;54886;47.036;15.466;2022-07-22T02:05:57;4.68;;;3.25;;
68097;SDS011;54886;47.036;15.466;2022-07-22T02:08:23;5.40;;;3.30;;
68097;SDS011;54886;47.036;15.466;2022-07-22T02:10:48;6.65;;;3.40;;
68097;SDS011;54886;47.036;15.466;2022-07-22T02:13:14;8.38;;;3.35;;
68097;SDS011;54886;47.036;15.466;2022-07-22T02:15:39;7.10;;;3.47;;
68097;SDS011;54886;47.036;15.466;2022-07-22T02:18:15;6.07;;;3.20;;
68097;SDS011;54886;47.036;15.466;2022-07-22T02:20:42;6.63;;;3.25;;
68097;SDS011;54886;47.036;15.466;2022-07-22T02:23:08;4.88;;;3.13;;
68097;SDS011;54886;47.036;15.466;2022-07-22T02:25:34;7.38;;;3.50;;
68097;SDS011;54886;47.036;15.466;2022-07-22T02:27:59;6.38;;;2.95;;
68097;SDS011;54886;47.036;15.466;2022-07-22T02:30:25;9.13;;;3.28;;
68097;SDS011;54886;47.036;15.466;2022-07-22T02:32:50;7.00;;;3.38;;
68097;SDS011;54886;47.036;15.466;2022-07-22T02:35:16;6.40;;;3.38;;
68097;SDS011;54886;47.036;15.466;2022-07-22T02:37:41;5.60;;;3.15;;
68097;SDS011;54886;47.036;15.466;2022-07-22T02:40:07;6.50;;;3.30;;
68097;SDS011;54886;47.036;15.466;2022-07-22T02:42:33;7.65;;;3.30;;
68097;SDS011;54886;47.036;15.466;2022-07-22T02:44:59;8.15;;;3.20;;
68097;SDS011;54886;47.036;15.466;2022-07-22T02:47:24;7.38;;;3.38;;
68097;SDS011;54886;47.036;15.466;2022-07-22T02:49:50;5.75;;;2.95;;
68097;SDS011;54886;47.036;15.466;2022-07-22T02:52:16;7.68;;;3.33;;
68097;SDS011;54886;47.036;15.466;2022-07-22T02:54:42;6.05;;;3.50;;
68097;SDS011;54886;47.036;15.466;2022-07-22T02:57:08;5.20;;;3.05;;
68097;SDS011;54886;47.036;15.466;2022-07-22T02:59:33;6.03;;;3.20;;
68097;SDS011;54886;47.036;15.466;2022-07-22T03:01:59;5.80;;;3.50;;
68097;SDS011;54886;47.036;15.466;2022-07-22T03:04:24;5.88;;;3.08;;
68097;SDS011;54886;47.036;15.466;2022-07-22T03:06:49;5.68;;;3.10;;
68097;SDS011;54886;47.036;15.466;2022-07-22T03:09:15;6.15;;;3.10;;
68097;SDS011;54886;47.036;15.466;2022-07-22T03:11:40;6.40;;;3.55;;
68097;SDS011;54886;47.036;15.466;2022-07-22T03:14:06;9.13;;;3.30;;
68097;SDS011;54886;47.036;15.466;2022-07-22T03:16:31;7.53;;;3.60;;
68097;SDS011;54886;47.036;15.466;2022-07-22T03:18:57;5.47;;;3.22;;
68097;SDS011;54886;47.036;15.466;2022-07-22T03:21:22;7.40;;;3.40;;
68097;SDS011;54886;47.036;15.466;2022-07-22T03:23:48;6.13;;;3.60;;
68097;SDS011;54886;47.036;15.466;2022-07-22T03:26:18;7.43;;;3.38;;
68097;SDS011;54886;47.036;15.466;2022-07-22T03:28:45;5.68;;;3.15;;
68097;SDS011;54886;47.036;15.466;2022-07-22T03:31:10;5.15;;;3.47;;
68097;SDS011;54886;47.036;15.466;2022-07-22T03:33:36;5.20;;;3.30;;
68097;SDS011;54886;47.036;15.466;2022-07-22T03:36:01;6.00;;;3.63;;
68097;SDS011;54886;47.036;15.466;2022-07-22T03:38:27;7.15;;;3.40;;
68097;SDS011;54886;47.036;15.466;2022-07-22T03:40:52;5.40;;;3.50;;
68097;SDS011;54886;47.036;15.466;2022-07-22T03:43:18;5.63;;;3.42;;
68097;SDS011;54886;47.036;15.466;2022-07-22T03:45:43;5.28;;;3.42;;
68097;SDS011;54886;47.036;15.466;2022-07-22T03:48:10;7.85;;;3.75;;
68097;SDS011;54886;47.036;15.466;2022-07-22T03:50:35;6.65;;;3.30;;
68097;SDS011;54886;47.036;15.466;2022-07-22T03:53:01;4.82;;;3.28;;
68097;SDS011;54886;47.036;15.466;2022-07-22T03:55:26;5.68;;;3.30;;
68097;SDS011;54886;47.036;15.466;2022-07-22T03:57:51;6.57;;;3.60;;
68097;SDS011;54886;47.036;15.466;2022-07-22T04:00:17;6.95;;;3.80;;
68097;SDS011;54886;47.036;15.466;2022-07-22T04:02:42;7.20;;;3.80;;
68097;SDS011;54886;47.036;15.466;2022-07-22T04:05:08;8.75;;;3.80;;
68097;SDS011;54886;47.036;15.466;2022-07-22T04:07:34;7.47;;;3.90;;
68097;SDS011;54886;47.036;15.466;2022-07-22T04:09:59;5.72;;;3.33;;
68097;SDS011;54886;47.036;15.466;2022-07-22T04:12:32;7.13;;;3.78;;
68097;SDS011;54886;47.036;15.466;2022-07-22T04:14:58;5.25;;;3.50;;
68097;SDS011;54886;47.036;15.466;2022-07-22T04:17:24;7.25;;;3.53;;
68097;SDS011;54886;47.036;15.466;2022-07-22T04:19:49;8.15;;;3.50;;
68097;SDS011;54886;47.036;15.466;2022-07-22T04:22:14;6.97;;;3.45;;
68097;SDS011;54886;47.036;15.466;2022-07-22T04:24:40;6.15;;;3.80;;
68097;SDS011;54886;47.036;15.466;2022-07-22T04:27:05;8.52;;;3.90;;
68097;SDS011;54886;47.036;15.466;2022-07-22T04:29:31;8.15;;;3.70;;
68097;SDS011;54886;47.036;15.466;2022-07-22T04:31:56;7.18;;;3.53;;
68097;SDS011;54886;47.036;15.466;2022-07-22T04:34:21;9.25;;;4.00;;
68097;SDS011;54886;47.036;15.466;2022-07-22T04:36:47;7.25;;;4.00;;
68097;SDS011;54886;47.036;15.466;2022-07-22T04:39:12;7.10;;;3.92;;
68097;SDS011;54886;47.036;15.466;2022-07-22T04:41:37;6.72;;;4.00;;
68097;SDS011;54886;47.036;15.466;2022-07-22T04:44:03;11.30;;;3.97;;
68097;SDS011;54886;47.036;15.466;2022-07-22T04:46:28;10.00;;;4.07;;
68097;SDS011;54886;47.036;15.466;2022-07-22T04:48:54;10.98;;;4.05;;
68097;SDS011;54886;47.036;15.466;2022-07-22T04:51:19;6.78;;;4.10;;
68097;SDS011;54886;47.036;15.466;2022-07-22T04:53:46;9.48;;;4.35;;
68097;SDS011;54886;47.036;15.466;2022-07-22T04:56:11;7.20;;;4.00;;
68097;SDS011;54886;47.036;15.466;2022-07-22T04:58:37;7.32;;;4.70;;
68097;SDS011;54886;47.036;15.466;2022-07-22T05:01:02;8.50;;;5.03;;
68097;SDS011;54886;47.036;15.466;2022-07-22T05:03:28;9.05;;;5.10;;
68097;SDS011;54886;47.036;15.466;2022-07-22T05:05:53;9.90;;;5.35;;
68097;SDS011;54886;47.036;15.466;2022-07-22T05:08:19;9.23;;;5.40;;
68097;SDS011;54886;47.036;15.466;2022-07-22T05:10:44;12.13;;;6.07;;
68097;SDS011;54886;47.036;15.466;2022-07-22T05:13:11;10.63;;;6.60;;
68097;SDS011;54886;47.036;15.466;2022-07-22T05:15:38;10.70;;;6.60;;
68097;SDS011;54886;47.036;15.466;2022-07-22T05:18:03;11.60;;;6.28;;
68097;SDS011;54886;47.036;15.466;2022-07-22T05:20:29;8.55;;;5.90;;
68097;SDS011;54886;47.036;15.466;2022-07-22T05:22:54;11.07;;;6.55;;
68097;SDS011;54886;47.036;15.466;2022-07-22T05:25:20;9.68;;;6.63;;
68097;SDS011;54886;47.036;15.466;2022-07-22T05:27:49;11.20;;;6.80;;
68097;SDS011;54886;47.036;15.466;2022-07-22T05:30:18;12.45;;;6.78;;
68097;SDS011;54886;47.036;15.466;2022-07-22T05:32:44;11.17;;;7.33;;
68097;SDS011;54886;47.036;15.466;2022-07-22T05:35:10;8.88;;;6.90;;
68097;SDS011;54886;47.036;15.466;2022-07-22T05:37:36;8.77;;;6.50;;
68097;SDS011;54886;47.036;15.466;2022-07-22T05:40:01;11.48;;;6.78;;
68097;SDS011;54886;47.036;15.466;2022-07-22T05:42:27;11.20;;;7.13;;
68097;SDS011;54886;47.036;15.466;2022-07-22T05:44:53;8.73;;;6.50;;
68097;SDS011;54886;47.036;15.466;2022-07-22T05:47:18;11.98;;;7.32;;
68097;SDS011;54886;47.036;15.466;2022-07-22T05:49:43;9.82;;;6.90;;
68097;SDS011;54886;47.036;15.466;2022-07-22T05:52:09;13.73;;;7.70;;
68097;SDS011;54886;47.036;15.466;2022-07-22T05:54:34;11.07;;;7.80;;
68097;SDS011;54886;47.036;15.466;2022-07-22T05:56:59;12.32;;;7.75;;
68097;SDS011;54886;47.036;15.466;2022-07-22T05:59:25;10.50;;;7.75;;
68097;SDS011;54886;47.036;15.466;2022-07-22T06:01:50;11.25;;;8.02;;
68097;SDS011;54886;47.036;15.466;2022-07-22T06:04:16;10.15;;;7.07;;
68097;SDS011;54886;47.036;15.466;2022-07-22T06:06:42;10.82;;;7.60;;
68097;SDS011;54886;47.036;15.466;2022-07-22T06:09:07;12.63;;;7.97;;
68097;SDS011;54886;47.036;15.466;2022-07-22T06:11:33;11.77;;;8.25;;
68097;SDS011;54886;47.036;15.466;2022-07-22T06:13:58;10.38;;;7.93;;
68097;SDS011;54886;47.036;15.466;2022-07-22T06:16:24;16.35;;;8.00;;
68097;SDS011;54886;47.036;15.466;2022-07-22T06:18:49;12.80;;;7.78;;
68097;SDS011;54886;47.036;15.466;2022-07-22T06:21:14;11.30;;;7.70;;
68097;SDS011;54886;47.036;15.466;2022-07-22T06:23:40;12.18;;;7.45;;
68097;SDS011;54886;47.036;15.466;2022-07-22T06:26:05;13.40;;;7.82;;
68097;SDS011;54886;47.036;15.466;2022-07-22T06:28:31;10.02;;;7.03;;
68097;SDS011;54886;47.036;15.466;2022-07-22T06:30:56;12.02;;;7.22;;
68097;SDS011;54886;47.036;15.466;2022-07-22T06:33:22;10.43;;;7.47;;
68097;SDS011;54886;47.036;15.466;2022-07-22T06:35:47;11.00;;;6.85;;
68097;SDS011;54886;47.036;15.466;2022-07-22T06:38:13;13.52;;;7.32;;
68097;SDS011;54886;47.036;15.466;2022-07-22T06:40:38;11.38;;;7.00;;
68097;SDS011;54886;47.036;15.466;2022-07-22T06:43:04;10.23;;;7.05;;
68097;SDS011;54886;47.036;15.466;2022-07-22T06:45:29;11.75;;;6.65;;
68097;SDS011;54886;47.036;15.466;2022-07-22T06:47:55;11.00;;;7.15;;
68097;SDS011;54886;47.036;15.466;2022-07-22T06:50:21;12.40;;;7.13;;
68097;SDS011;54886;47.036;15.466;2022-07-22T06:52:46;13.48;;;7.03;;
68097;SDS011;54886;47.036;15.466;2022-07-22T06:55:14;15.10;;;6.60;;
68097;SDS011;54886;47.036;15.466;2022-07-22T06:57:40;9.30;;;6.30;;
68097;SDS011;54886;47.036;15.466;2022-07-22T07:00:06;8.55;;;6.30;;
68097;SDS011;54886;47.036;15.466;2022-07-22T07:02:33;12.90;;;6.50;;
68097;SDS011;54886;47.036;15.466;2022-07-22T07:04:59;9.02;;;5.43;;
68097;SDS011;54886;47.036;15.466;2022-07-22T07:07:24;12.20;;;6.88;;
68097;SDS011;54886;47.036;15.466;2022-07-22T07:09:50;14.00;;;6.75;;
68097;SDS011;54886;47.036;15.466;2022-07-22T07:12:15;14.80;;;6.75;;
68097;SDS011;54886;47.036;15.466;2022-07-22T07:14:40;10.88;;;5.90;;
68097;SDS011;54886;47.036;15.466;2022-07-22T07:17:06;11.77;;;6.10;;
68097;SDS011;54886;47.036;15.466;2022-07-22T07:19:32;8.45;;;5.70;;
68097;SDS011;54886;47.036;15.466;2022-07-22T07:21:57;10.32;;;5.95;;
68097;SDS011;54886;47.036;15.466;2022-07-22T07:24:22;11.25;;;6.07;;
68097;SDS011;54886;47.036;15.466;2022-07-22T07:26:48;9.13;;;6.30;;
68097;SDS011;54886;47.036;15.466;2022-07-22T07:29:13;10.13;;;6.15;;
68097;SDS011;54886;47.036;15.466;2022-07-22T07:31:39;12.27;;;6.38;;
68097;SDS011;54886;47.036;15.466;2022-07-22T07:34:04;10.07;;;6.60;;
68097;SDS011;54886;47.036;15.466;2022-07-22T07:36:29;11.48;;;5.95;;
68097;SDS011;54886;47.036;15.466;2022-07-22T07:38:55;12.52;;;6.18;;
68097;SDS011;54886;47.036;15.466;2022-07-22T07:41:20;11.77;;;5.80;;
68097;SDS011;54886;47.036;15.466;2022-07-22T07:43:46;9.98;;;5.88;;
68097;SDS011;54886;47.036;15.466;2022-07-22T07:46:12;9.90;;;5.72;;
68097;SDS011;54886;47.036;15.466;2022-07-22T07:48:38;8.52;;;5.60;;
68097;SDS011;54886;47.036;15.466;2022-07-22T07:51:03;11.40;;;5.97;;
68097;SDS011;54886;47.036;15.466;2022-07-22T07:53:30;9.50;;;5.97;;
68097;SDS011;54886;47.036;15.466;2022-07-22T07:55:55;10.60;;;5.75;;
68097;SDS011;54886;47.036;15.466;2022-07-22T07:58:21;10.63;;;5.28;;
68097;SDS011;54886;47.036;15.466;2022-07-22T08:00:46;8.68;;;5.82;;
68097;SDS011;54886;47.036;15.466;2022-07-22T08:03:12;9.73;;;6.00;;
68097;SDS011;54886;47.036;15.466;2022-07-22T08:05:37;8.65;;;6.03;;
68097;SDS011;54886;47.036;15.466;2022-07-22T08:08:04;9.75;;;5.60;;
68097;SDS011;54886;47.036;15.466;2022-07-22T08:10:29;8.70;;;5.90;;
68097;SDS011;54886;47.036;15.466;2022-07-22T08:12:55;10.13;;;5.88;;
68097;SDS011;54886;47.036;15.466;2022-07-22T08:15:22;10.15;;;5.72;;
68097;SDS011;54886;47.036;15.466;2022-07-22T08:17:48;10.25;;;5.97;;
68097;SDS011;54886;47.036;15.466;2022-07-22T08:20:13;9.85;;;5.95;;
68097;SDS011;54886;47.036;15.466;2022-07-22T08:22:39;9.43;;;5.70;;
68097;SDS011;54886;47.036;15.466;2022-07-22T08:25:04;8.27;;;5.88;;
68097;SDS011;54886;47.036;15.466;2022-07-22T08:27:30;9.75;;;6.05;;
68097;SDS011;54886;47.036;15.466;2022-07-22T08:29:56;9.27;;;5.82;;
68097;SDS011;54886;47.036;15.466;2022-07-22T08:32:22;11.50;;;5.75;;
68097;SDS011;54886;47.036;15.466;2022-07-22T08:34:47;9.63;;;5.57;;
68097;SDS011;54886;47.036;15.466;2022-07-22T08:37:13;11.00;;;5.50;;
68097;SDS011;54886;47.036;15.466;2022-07-22T08:39:38;8.05;;;5.38;;
68097;SDS011;54886;47.036;15.466;2022-07-22T08:42:04;10.05;;;5.57;;
68097;SDS011;54886;47.036;15.466;2022-07-22T08:44:32;8.65;;;5.40;;
68097;SDS011;54886;47.036;15.466;2022-07-22T08:46:58;8.18;;;5.00;;
68097;SDS011;54886;47.036;15.466;2022-07-22T08:49:25;8.60;;;5.75;;
68097;SDS011;54886;47.036;15.466;2022-07-22T08:51:51;9.88;;;5.43;;
68097;SDS011;54886;47.036;15.466;2022-07-22T08:54:17;9.80;;;5.85;;
68097;SDS011;54886;47.036;15.466;2022-07-22T08:56:45;10.52;;;5.40;;
68097;SDS011;54886;47.036;15.466;2022-07-22T08:59:12;8.25;;;5.55;;
68097;SDS011;54886;47.036;15.466;2022-07-22T09:01:38;11.95;;;5.80;;
68097;SDS011;54886;47.036;15.466;2022-07-22T09:04:27;8.52;;;5.38;;
68097;SDS011;54886;47.036;15.466;2022-07-22T09:06:53;8.23;;;5.57;;
68097;SDS011;54886;47.036;15.466;2022-07-22T09:09:18;9.85;;;5.50;;
68097;SDS011;54886;47.036;15.466;2022-07-22T09:12:04;10.88;;;5.53;;
68097;SDS011;54886;47.036;15.466;2022-07-22T09:14:46;7.45;;;5.65;;
68097;SDS011;54886;47.036;15.466;2022-07-22T09:17:22;11.35;;;5.07;;
68097;SDS011;54886;47.036;15.466;2022-07-22T09:19:58;9.45;;;5.57;;
68097;SDS011;54886;47.036;15.466;2022-07-22T09:24:58;8.55;;;5.50;;
68097;SDS011;54886;47.036;15.466;2022-07-22T09:27:24;8.90;;;5.47;;
68097;SDS011;54886;47.036;15.466;2022-07-22T09:29:51;8.95;;;5.40;;
68097;SDS011;54886;47.036;15.466;2022-07-22T09:32:16;9.48;;;5.65;;
68097;SDS011;54886;47.036;15.466;2022-07-22T09:34:41;9.00;;;5.60;;
68097;SDS011;54886;47.036;15.466;2022-07-22T09:37:07;9.55;;;5.55;;
68097;SDS011;54886;47.036;15.466;2022-07-22T09:39:32;9.32;;;5.72;;
68097;SDS011;54886;47.036;15.466;2022-07-22T09:42:05;8.90;;;5.63;;
68097;SDS011;54886;47.036;15.466;2022-07-22T09:44:32;12.02;;;5.63;;
68097;SDS011;54886;47.036;15.466;2022-07-22T09:46:58;8.05;;;5.10;;
68097;SDS011;54886;47.036;15.466;2022-07-22T09:49:33;9.27;;;5.70;;
68097;SDS011;54886;47.036;15.466;2022-07-22T09:52:01;9.88;;;5.70;;
68097;SDS011;54886;47.036;15.466;2022-07-22T09:54:28;9.80;;;5.43;;
68097;SDS011;54886;47.036;15.466;2022-07-22T09:56:54;7.28;;;5.20;;
68097;SDS011;54886;47.036;15.466;2022-07-22T09:59:20;9.07;;;5.57;;
68097;SDS011;54886;47.036;15.466;2022-07-22T10:01:46;10.88;;;5.80;;
68097;SDS011;54886;47.036;15.466;2022-07-22T10:04:15;8.82;;;5.30;;
68097;SDS011;54886;47.036;15.466;2022-07-22T10:09:09;7.60;;;5.43;;
68097;SDS011;54886;47.036;15.466;2022-07-22T10:11:37;8.82;;;5.28;;
68097;SDS011;54886;47.036;15.466;2022-07-22T10:16:29;11.07;;;5.20;;
68097;SDS011;54886;47.036;15.466;2022-07-22T10:18:55;8.68;;;5.20;;
68097;SDS011;54886;47.036;15.466;2022-07-22T10:21:21;8.43;;;5.18;;
68097;SDS011;54886;47.036;15.466;2022-07-22T10:24:09;8.93;;;5.20;;
68097;SDS011;54886;47.036;15.466;2022-07-22T10:26:52;11.98;;;5.30;;
68097;SDS011;54886;47.036;15.466;2022-07-22T10:29:27;8.30;;;4.97;;
68097;SDS011;54886;47.036;15.466;2022-07-22T10:32:39;8.40;;;5.07;;
68097;SDS011;54886;47.036;15.466;2022-07-22T10:45:34;10.95;;;5.22;;
68097;SDS011;54886;47.036;15.466;2022-07-22T10:48:06;8.00;;;4.85;;
68097;SDS011;54886;47.036;15.466;2022-07-22T10:56:25;7.40;;;4.97;;
68097;SDS011;54886;47.036;15.466;2022-07-22T11:01:04;8.48;;;4.85;;
68097;SDS011;54886;47.036;15.466;2022-07-22T11:03:33;9.15;;;4.75;;
68097;SDS011;54886;47.036;15.466;2022-07-22T11:06:33;7.57;;;4.57;;
68097;SDS011;54886;47.036;15.466;2022-07-22T11:08:56;7.50;;;4.65;;
68097;SDS011;54886;47.036;15.466;2022-07-22T11:11:33;7.13;;;4.55;;
68097;SDS011;54886;47.036;15.466;2022-07-22T11:14:10;8.82;;;4.50;;
68097;SDS011;54886;47.036;15.466;2022-07-22T11:16:42;7.65;;;4.22;;
68097;SDS011;54886;47.036;15.466;2022-07-22T11:19:08;7.25;;;4.40;;
68097;SDS011;54886;47.036;15.466;2022-07-22T11:21:34;6.93;;;4.40;;
68097;SDS011;54886;47.036;15.466;2022-07-22T11:24:01;9.82;;;4.55;;
68097;SDS011;54886;47.036;15.466;2022-07-22T11:26:33;6.40;;;4.40;;
68097;SDS011;54886;47.036;15.466;2022-07-22T11:28:59;7.65;;;4.50;;
68097;SDS011;54886;47.036;15.466;2022-07-22T11:31:25;7.50;;;4.67;;
68097;SDS011;54886;47.036;15.466;2022-07-22T11:33:51;9.10;;;4.38;;
68097;SDS011;54886;47.036;15.466;2022-07-22T11:36:16;5.70;;;4.03;;
68097;SDS011;54886;47.036;15.466;2022-07-22T11:38:46;7.13;;;4.20;;
68097;SDS011;54886;47.036;15.466;2022-07-22T11:41:14;8.30;;;4.53;;
68097;SDS011;54886;47.036;15.466;2022-07-22T11:43:45;6.43;;;4.30;;
68097;SDS011;54886;47.036;15.466;2022-07-22T11:46:13;8.93;;;4.18;;
68097;SDS011;54886;47.036;15.466;2022-07-22T11:48:40;8.18;;;3.97;;
68097;SDS011;54886;47.036;15.466;2022-07-22T11:51:07;5.85;;;4.35;;
68097;SDS011;54886;47.036;15.466;2022-07-22T11:53:35;8.27;;;4.15;;
68097;SDS011;54886;47.036;15.466;2022-07-22T11:56:02;6.47;;;4.20;;
68097;SDS011;54886;47.036;15.466;2022-07-22T12:01:00;7.22;;;4.00;;
68097;SDS011;54886;47.036;15.466;2022-07-22T12:03:26;8.37;;;4.30;;
68097;SDS011;54886;47.036;15.466;2022-07-22T12:05:52;6.32;;;4.25;;
68097;SDS011;54886;47.036;15.466;2022-07-22T12:08:19;8.40;;;4.70;;
68097;SDS011;54886;47.036;15.466;2022-07-22T12:10:44;10.77;;;4.70;;
68097;SDS011;54886;47.036;15.466;2022-07-22T12:13:11;7.40;;;4.73;;
68097;SDS011;54886;47.036;15.466;2022-07-22T12:15:38;8.45;;;4.85;;
68097;SDS011;54886;47.036;15.466;2022-07-22T12:20:46;7.28;;;4.90;;
68097;SDS011;54886;47.036;15.466;2022-07-22T12:23:13;8.90;;;4.68;;
68097;SDS011;54886;47.036;15.466;2022-07-22T12:28:18;6.97;;;4.70;;
68097;SDS011;54886;47.036;15.466;2022-07-22T12:30:44;8.03;;;4.80;;
68097;SDS011;54886;47.036;15.466;2022-07-22T12:33:16;12.35;;;5.03;;
68097;SDS011;54886;47.036;15.466;2022-07-22T12:35:43;8.38;;;4.60;;
68097;SDS011;54886;47.036;15.466;2022-07-22T12:38:22;6.68;;;4.68;;
68097;SDS011;54886;47.036;15.466;2022-07-22T12:40:47;7.70;;;4.70;;
68097;SDS011;54886;47.036;15.466;2022-07-22T12:43:13;8.23;;;4.83;;
68097;SDS011;54886;47.036;15.466;2022-07-22T12:45:38;7.23;;;4.90;;
68097;SDS011;54886;47.036;15.466;2022-07-22T12:48:05;8.85;;;4.85;;
68097;SDS011;54886;47.036;15.466;2022-07-22T12:53:02;9.57;;;5.00;;
68097;SDS011;54886;47.036;15.466;2022-07-22T12:55:39;7.82;;;4.80;;
68097;SDS011;54886;47.036;15.466;2022-07-22T12:58:17;7.97;;;5.38;;
68097;SDS011;54886;47.036;15.466;2022-07-22T13:00:43;8.23;;;4.87;;
68097;SDS011;54886;47.036;15.466;2022-07-22T13:03:16;7.38;;;4.50;;
68097;SDS011;54886;47.036;15.466;2022-07-22T13:05:51;7.18;;;4.78;;
68097;SDS011;54886;47.036;15.466;2022-07-22T13:08:18;8.55;;;4.70;;
68097;SDS011;54886;47.036;15.466;2022-07-22T13:10:43;9.53;;;5.00;;
68097;SDS011;54886;47.036;15.466;2022-07-22T13:13:09;7.33;;;4.97;;
68097;SDS011;54886;47.036;15.466;2022-07-22T13:15:34;10.17;;;5.03;;
68097;SDS011;54886;47.036;15.466;2022-07-22T13:18:02;8.20;;;4.45;;
68097;SDS011;54886;47.036;15.466;2022-07-22T13:20:28;9.20;;;5.18;;
68097;SDS011;54886;47.036;15.466;2022-07-22T13:22:54;9.33;;;5.03;;
68097;SDS011;54886;47.036;15.466;2022-07-22T13:25:19;7.00;;;4.87;;
68097;SDS011;54886;47.036;15.466;2022-07-22T13:27:44;6.47;;;4.77;;
68097;SDS011;54886;47.036;15.466;2022-07-22T13:30:10;7.83;;;5.13;;
68097;SDS011;54886;47.036;15.466;2022-07-22T13:32:36;7.43;;;4.78;;
68097;SDS011;54886;47.036;15.466;2022-07-22T13:35:02;8.63;;;4.80;;
68097;SDS011;54886;47.036;15.466;2022-07-22T13:37:27;10.37;;;5.03;;
68097;SDS011;54886;47.036;15.466;2022-07-22T13:39:52;11.30;;;5.20;;
68097;SDS011;54886;47.036;15.466;2022-07-22T13:42:18;7.60;;;4.97;;
68097;SDS011;54886;47.036;15.466;2022-07-22T13:44:47;9.57;;;4.80;;
68097;SDS011;54886;47.036;15.466;2022-07-22T13:47:14;7.38;;;5.00;;
68097;SDS011;54886;47.036;15.466;2022-07-22T13:49:40;8.00;;;5.18;;
68097;SDS011;54886;47.036;15.466;2022-07-22T13:52:06;11.13;;;4.70;;
68097;SDS011;54886;47.036;15.466;2022-07-22T13:54:32;8.50;;;5.20;;
68097;SDS011;54886;47.036;15.466;2022-07-22T13:56:58;6.90;;;4.80;;
68097;SDS011;54886;47.036;15.466;2022-07-22T13:59:24;8.10;;;4.80;;
68097;SDS011;54886;47.036;15.466;2022-07-22T14:01:50;10.20;;;4.97;;
68097;SDS011;54886;47.036;15.466;2022-07-22T14:04:15;9.27;;;5.13;;
68097;SDS011;54886;47.036;15.466;2022-07-22T14:06:41;11.03;;;5.23;;
68097;SDS011;54886;47.036;15.466;2022-07-22T14:09:06;9.17;;;4.90;;
68097;SDS011;54886;47.036;15.466;2022-07-22T14:11:32;7.90;;;5.20;;
68097;SDS011;54886;47.036;15.466;2022-07-22T14:13:57;7.43;;;4.80;;
68097;SDS011;54886;47.036;15.466;2022-07-22T14:16:23;8.47;;;4.90;;
68097;SDS011;54886;47.036;15.466;2022-07-22T14:21:33;7.53;;;5.00;;
68097;SDS011;54886;47.036;15.466;2022-07-22T14:23:59;10.02;;;5.10;;
68097;SDS011;54886;47.036;15.466;2022-07-22T14:28:51;7.70;;;4.67;;
68097;SDS011;54886;47.036;15.466;2022-07-22T14:31:17;8.30;;;4.93;;
68097;SDS011;54886;47.036;15.466;2022-07-22T14:33:42;6.37;;;4.70;;
68097;SDS011;54886;47.036;15.466;2022-07-22T14:36:08;7.00;;;5.03;;
68097;SDS011;54886;47.036;15.466;2022-07-22T14:38:34;8.70;;;5.43;;
68097;SDS011;54886;47.036;15.466;2022-07-22T14:40:59;10.10;;;5.30;;
68097;SDS011;54886;47.036;15.466;2022-07-22T14:43:24;8.00;;;5.00;;
68097;SDS011;54886;47.036;15.466;2022-07-22T14:45:50;10.23;;;5.17;;
68097;SDS011;54886;47.036;15.466;2022-07-22T14:48:15;8.80;;;4.83;;
68097;SDS011;54886;47.036;15.466;2022-07-22T14:50:41;9.10;;;4.97;;
68097;SDS011;54886;47.036;15.466;2022-07-22T14:53:06;9.27;;;5.13;;
68097;SDS011;54886;47.036;15.466;2022-07-22T14:55:32;9.53;;;5.37;;
68097;SDS011;54886;47.036;15.466;2022-07-22T14:57:57;7.90;;;4.97;;
68097;SDS011;54886;47.036;15.466;2022-07-22T15:00:23;9.43;;;5.13;;
68097;SDS011;54886;47.036;15.466;2022-07-22T15:02:48;7.93;;;5.17;;
68097;SDS011;54886;47.036;15.466;2022-07-22T15:05:14;7.00;;;5.30;;
68097;SDS011;54886;47.036;15.466;2022-07-22T15:07:39;8.80;;;5.27;;
68097;SDS011;54886;47.036;15.466;2022-07-22T15:10:05;10.23;;;4.90;;